sensor_id;sensor_type;location;lat;lon;timestamp;P1;durP1;ratioP1;P2;durP2;ratioP2
57718;SDS011;43561;50.090;18.522;2022-10-26T00:00:25;41.55;;;18.90;;
57718;SDS011;43561;50.090;18.522;2022-10-26T00:10:28;36.58;;;20.45;;
57718;SDS011;43561;50.090;18.522;2022-10-26T00:20:32;37.85;;;22.38;;
57718;SDS011;43561;50.090;18.522;2022-10-26T00:30:37;33.05;;;20.17;;
57718;SDS011;43561;50.090;18.522;2022-10-26T00:40:40;43.22;;;23.05;;
57718;SDS011;43561;50.090;18.522;2022-10-26T00:50:42;44.80;;;24.35;;
57718;SDS011;43561;50.090;18.522;2022-10-26T01:00:47;44.45;;;23.98;;
57718;SDS011;43561;50.090;18.522;2022-10-26T01:10:50;34.45;;;20.70;;
57718;SDS011;43561;50.090;18.522;2022-10-26T01:21:12;41.70;;;25.85;;
57718;SDS011;43561;50.090;18.522;2022-10-26T01:31:37;44.33;;;28.27;;
57718;SDS011;43561;50.090;18.522;2022-10-26T01:41:57;42.35;;;26.45;;
57718;SDS011;43561;50.090;18.522;2022-10-26T01:52:00;45.42;;;25.65;;
57718;SDS011;43561;50.090;18.522;2022-10-26T02:12:20;31.40;;;20.17;;
57718;SDS011;43561;50.090;18.522;2022-10-26T02:22:38;43.10;;;21.35;;
57718;SDS011;43561;50.090;18.522;2022-10-26T02:32:46;32.88;;;24.10;;
57718;SDS011;43561;50.090;18.522;2022-10-26T02:42:51;35.08;;;25.38;;
57718;SDS011;43561;50.090;18.522;2022-10-26T02:53:09;41.28;;;27.27;;
57718;SDS011;43561;50.090;18.522;2022-10-26T03:03:20;48.08;;;28.55;;
57718;SDS011;43561;50.090;18.522;2022-10-26T03:13:23;47.22;;;29.52;;
57718;SDS011;43561;50.090;18.522;2022-10-26T03:23:25;44.22;;;27.25;;
57718;SDS011;43561;50.090;18.522;2022-10-26T03:33:27;59.63;;;30.40;;
57718;SDS011;43561;50.090;18.522;2022-10-26T03:43:28;42.33;;;27.33;;
57718;SDS011;43561;50.090;18.522;2022-10-26T03:53:30;44.38;;;27.45;;
57718;SDS011;43561;50.090;18.522;2022-10-26T04:03:32;42.47;;;30.27;;
57718;SDS011;43561;50.090;18.522;2022-10-26T04:13:34;41.83;;;26.60;;
57718;SDS011;43561;50.090;18.522;2022-10-26T04:23:36;38.97;;;26.70;;
57718;SDS011;43561;50.090;18.522;2022-10-26T04:33:38;43.10;;;25.95;;
57718;SDS011;43561;50.090;18.522;2022-10-26T04:43:40;36.35;;;27.30;;
57718;SDS011;43561;50.090;18.522;2022-10-26T04:53:41;53.47;;;31.90;;
57718;SDS011;43561;50.090;18.522;2022-10-26T05:03:43;44.67;;;27.60;;
57718;SDS011;43561;50.090;18.522;2022-10-26T05:13:48;34.00;;;24.25;;
57718;SDS011;43561;50.090;18.522;2022-10-26T05:23:50;44.22;;;27.15;;
57718;SDS011;43561;50.090;18.522;2022-10-26T05:33:53;56.83;;;32.88;;
57718;SDS011;43561;50.090;18.522;2022-10-26T05:43:55;55.45;;;31.30;;
57718;SDS011;43561;50.090;18.522;2022-10-26T05:53:57;39.13;;;26.58;;
57718;SDS011;43561;50.090;18.522;2022-10-26T06:04:06;44.25;;;28.90;;
57718;SDS011;43561;50.090;18.522;2022-10-26T06:14:23;56.65;;;29.83;;
57718;SDS011;43561;50.090;18.522;2022-10-26T06:34:54;65.82;;;33.20;;
57718;SDS011;43561;50.090;18.522;2022-10-26T06:45:19;41.50;;;27.52;;
57718;SDS011;43561;50.090;18.522;2022-10-26T06:55:22;42.63;;;29.13;;
57718;SDS011;43561;50.090;18.522;2022-10-26T07:05:24;39.05;;;22.67;;
57718;SDS011;43561;50.090;18.522;2022-10-26T07:15:26;36.63;;;19.42;;
57718;SDS011;43561;50.090;18.522;2022-10-26T07:25:28;27.13;;;16.80;;
57718;SDS011;43561;50.090;18.522;2022-10-26T07:35:32;23.70;;;13.60;;
57718;SDS011;43561;50.090;18.522;2022-10-26T07:45:34;20.65;;;12.82;;
57718;SDS011;43561;50.090;18.522;2022-10-26T07:55:35;18.90;;;12.65;;
57718;SDS011;43561;50.090;18.522;2022-10-26T08:05:37;16.02;;;14.20;;
57718;SDS011;43561;50.090;18.522;2022-10-26T08:15:39;24.33;;;14.93;;
57718;SDS011;43561;50.090;18.522;2022-10-26T08:25:41;18.55;;;11.27;;
57718;SDS011;43561;50.090;18.522;2022-10-26T08:35:43;14.43;;;7.03;;
57718;SDS011;43561;50.090;18.522;2022-10-26T08:45:47;14.23;;;6.70;;
57718;SDS011;43561;50.090;18.522;2022-10-26T08:56:11;9.57;;;6.95;;
57718;SDS011;43561;50.090;18.522;2022-10-26T09:06:33;20.42;;;8.98;;
57718;SDS011;43561;50.090;18.522;2022-10-26T09:17:01;12.57;;;7.93;;
57718;SDS011;43561;50.090;18.522;2022-10-26T09:27:20;16.42;;;8.20;;
57718;SDS011;43561;50.090;18.522;2022-10-26T09:37:30;9.68;;;7.05;;
57718;SDS011;43561;50.090;18.522;2022-10-26T09:47:38;9.10;;;4.03;;
57718;SDS011;43561;50.090;18.522;2022-10-26T09:57:45;8.38;;;4.25;;
57718;SDS011;43561;50.090;18.522;2022-10-26T10:07:54;11.07;;;4.93;;
57718;SDS011;43561;50.090;18.522;2022-10-26T10:18:17;13.25;;;5.63;;
57718;SDS011;43561;50.090;18.522;2022-10-26T10:28:21;8.35;;;4.43;;
57718;SDS011;43561;50.090;18.522;2022-10-26T10:38:25;2.80;;;2.40;;
57718;SDS011;43561;50.090;18.522;2022-10-26T10:48:28;9.13;;;2.83;;
57718;SDS011;43561;50.090;18.522;2022-10-26T10:58:32;5.32;;;2.33;;
57718;SDS011;43561;50.090;18.522;2022-10-26T11:08:49;5.45;;;2.42;;
57718;SDS011;43561;50.090;18.522;2022-10-26T11:29:06;3.60;;;2.22;;
57718;SDS011;43561;50.090;18.522;2022-10-26T11:39:35;5.03;;;3.17;;
57718;SDS011;43561;50.090;18.522;2022-10-26T12:10:05;5.47;;;2.40;;
57718;SDS011;43561;50.090;18.522;2022-10-26T12:30:34;4.82;;;2.15;;
57718;SDS011;43561;50.090;18.522;2022-10-26T12:40:37;7.15;;;5.53;;
57718;SDS011;43561;50.090;18.522;2022-10-26T12:50:40;3.35;;;1.75;;
57718;SDS011;43561;50.090;18.522;2022-10-26T13:11:06;6.35;;;2.45;;
57718;SDS011;43561;50.090;18.522;2022-10-26T13:21:16;3.03;;;2.05;;
57718;SDS011;43561;50.090;18.522;2022-10-26T13:41:34;3.60;;;1.98;;
57718;SDS011;43561;50.090;18.522;2022-10-26T13:51:41;6.50;;;2.97;;
57718;SDS011;43561;50.090;18.522;2022-10-26T14:01:46;4.10;;;1.70;;
57718;SDS011;43561;50.090;18.522;2022-10-26T14:12:08;7.13;;;2.03;;
57718;SDS011;43561;50.090;18.522;2022-10-26T14:22:17;2.60;;;1.73;;
57718;SDS011;43561;50.090;18.522;2022-10-26T14:32:27;4.43;;;2.67;;
57718;SDS011;43561;50.090;18.522;2022-10-26T14:42:31;3.80;;;1.98;;
57718;SDS011;43561;50.090;18.522;2022-10-26T14:52:40;3.03;;;2.25;;
57718;SDS011;43561;50.090;18.522;2022-10-26T15:02:45;3.85;;;2.17;;
57718;SDS011;43561;50.090;18.522;2022-10-26T15:12:50;17.67;;;9.52;;
57718;SDS011;43561;50.090;18.522;2022-10-26T15:23:01;10.98;;;8.30;;
57718;SDS011;43561;50.090;18.522;2022-10-26T15:43:32;30.33;;;18.83;;
57718;SDS011;43561;50.090;18.522;2022-10-26T15:53:34;24.38;;;13.10;;
57718;SDS011;43561;50.090;18.522;2022-10-26T16:03:36;19.95;;;11.75;;
57718;SDS011;43561;50.090;18.522;2022-10-26T16:13:38;93.70;;;46.03;;
57718;SDS011;43561;50.090;18.522;2022-10-26T16:23:40;24.85;;;15.55;;
57718;SDS011;43561;50.090;18.522;2022-10-26T16:33:45;28.83;;;12.02;;
57718;SDS011;43561;50.090;18.522;2022-10-26T16:43:47;32.90;;;15.15;;
57718;SDS011;43561;50.090;18.522;2022-10-26T16:53:50;30.52;;;13.32;;
57718;SDS011;43561;50.090;18.522;2022-10-26T17:03:52;33.33;;;13.85;;
57718;SDS011;43561;50.090;18.522;2022-10-26T17:13:55;25.08;;;14.45;;
57718;SDS011;43561;50.090;18.522;2022-10-26T17:23:57;41.20;;;19.33;;
57718;SDS011;43561;50.090;18.522;2022-10-26T17:33:59;41.47;;;20.45;;
57718;SDS011;43561;50.090;18.522;2022-10-26T17:44:01;38.42;;;20.88;;
57718;SDS011;43561;50.090;18.522;2022-10-26T17:54:03;41.05;;;19.55;;
57718;SDS011;43561;50.090;18.522;2022-10-26T18:04:05;46.53;;;28.05;;
57718;SDS011;43561;50.090;18.522;2022-10-26T18:14:07;86.38;;;40.35;;
57718;SDS011;43561;50.090;18.522;2022-10-26T18:24:09;124.47;;;48.92;;
57718;SDS011;43561;50.090;18.522;2022-10-26T18:34:11;91.97;;;49.80;;
57718;SDS011;43561;50.090;18.522;2022-10-26T18:44:13;105.10;;;49.17;;
57718;SDS011;43561;50.090;18.522;2022-10-26T18:54:15;65.47;;;32.70;;
57718;SDS011;43561;50.090;18.522;2022-10-26T19:04:17;46.65;;;25.58;;
57718;SDS011;43561;50.090;18.522;2022-10-26T19:14:19;47.28;;;25.52;;
57718;SDS011;43561;50.090;18.522;2022-10-26T19:24:21;64.10;;;31.42;;
57718;SDS011;43561;50.090;18.522;2022-10-26T19:34:23;67.35;;;41.47;;
57718;SDS011;43561;50.090;18.522;2022-10-26T19:44:25;75.15;;;44.75;;
57718;SDS011;43561;50.090;18.522;2022-10-26T19:54:27;96.13;;;47.72;;
57718;SDS011;43561;50.090;18.522;2022-10-26T20:04:29;79.05;;;44.15;;
57718;SDS011;43561;50.090;18.522;2022-10-26T20:14:31;66.75;;;34.47;;
57718;SDS011;43561;50.090;18.522;2022-10-26T20:24:33;77.93;;;34.97;;
57718;SDS011;43561;50.090;18.522;2022-10-26T20:34:35;59.28;;;34.15;;
57718;SDS011;43561;50.090;18.522;2022-10-26T20:44:38;66.35;;;29.73;;
57718;SDS011;43561;50.090;18.522;2022-10-26T21:05:03;61.92;;;32.15;;
57718;SDS011;43561;50.090;18.522;2022-10-26T21:15:05;52.03;;;24.63;;
57718;SDS011;43561;50.090;18.522;2022-10-26T21:25:08;51.45;;;21.88;;
57718;SDS011;43561;50.090;18.522;2022-10-26T21:35:10;30.52;;;19.23;;
57718;SDS011;43561;50.090;18.522;2022-10-26T21:45:12;40.35;;;20.60;;
57718;SDS011;43561;50.090;18.522;2022-10-26T21:55:14;31.85;;;17.55;;
57718;SDS011;43561;50.090;18.522;2022-10-26T22:05:16;39.10;;;18.52;;
57718;SDS011;43561;50.090;18.522;2022-10-26T22:15:18;42.33;;;20.00;;
57718;SDS011;43561;50.090;18.522;2022-10-26T22:25:20;34.08;;;19.75;;
57718;SDS011;43561;50.090;18.522;2022-10-26T22:35:22;35.30;;;18.38;;
57718;SDS011;43561;50.090;18.522;2022-10-26T22:45:30;32.08;;;21.10;;
57718;SDS011;43561;50.090;18.522;2022-10-26T22:55:32;30.92;;;19.75;;
57718;SDS011;43561;50.090;18.522;2022-10-26T23:05:33;39.15;;;23.67;;
57718;SDS011;43561;50.090;18.522;2022-10-26T23:15:35;39.47;;;18.65;;
57718;SDS011;43561;50.090;18.522;2022-10-26T23:25:37;29.38;;;15.32;;
57718;SDS011;43561;50.090;18.522;2022-10-26T23:35:39;35.08;;;19.20;;
57718;SDS011;43561;50.090;18.522;2022-10-26T23:45:41;48.92;;;19.00;;
57718;SDS011;43561;50.090;18.522;2022-10-26T23:55:43;31.65;;;17.17;;
